Time;durP1;ratioP1;P1;durP2;ratioP2;P2;SDS_P1;SDS_P2;PMS_P1;PMS_P2;Temp;Humidity;BMP_temperature;BMP_pressure;BME280_temperature;BME280_humidity;BME280_pressure;Samples;Min_cycle;Max_cycle;Signal;HPM_P1;HPM_P2
2021/01/10 00:00:17;;;;;;;16.53;8.20;;;-2.50;97.40;;;;;;5001230;28;20327;-65
2021/01/10 00:02:44;;;;;;;18.97;7.00;;;-2.50;97.20;;;;;;4996700;28;20469;-66
2021/01/10 00:05:12;;;;;;;12.43;7.20;;;-2.50;97.20;;;;;;5011817;28;20517;-64
2021/01/10 00:07:38;;;;;;;16.10;8.40;;;-2.50;97.10;;;;;;5011592;28;20428;-66
2021/01/10 00:10:09;;;;;;;13.40;7.80;;;-2.50;97.20;;;;;;5012486;28;20529;-65
2021/01/10 00:12:36;;;;;;;14.40;7.57;;;-2.50;97.10;;;;;;5009362;28;20435;-65
2021/01/10 00:15:02;;;;;;;14.10;7.47;;;-2.50;97.10;;;;;;5016722;28;20850;-65
2021/01/10 00:17:28;;;;;;;12.77;6.90;;;-2.60;96.90;;;;;;5021242;28;20448;-65
2021/01/10 00:19:54;;;;;;;14.90;7.40;;;-2.60;96.70;;;;;;5024611;28;20457;-65
2021/01/10 00:22:21;;;;;;;15.87;8.20;;;-2.60;97.00;;;;;;5023077;28;20208;-65
2021/01/10 00:24:47;;;;;;;12.10;7.40;;;-2.60;96.80;;;;;;5016322;28;20235;-66
2021/01/10 00:27:14;;;;;;;13.87;7.37;;;-2.60;96.80;;;;;;5012679;28;20421;-65
2021/01/10 00:29:43;;;;;;;14.97;7.87;;;-2.60;96.40;;;;;;5011685;28;20281;-65
2021/01/10 00:32:08;;;;;;;14.37;7.10;;;-2.60;96.40;;;;;;5010677;28;20422;-64
2021/01/10 00:34:34;;;;;;;13.53;6.33;;;-2.70;96.40;;;;;;5010523;28;20466;-66
2021/01/10 00:37:00;;;;;;;11.87;6.80;;;-2.70;96.50;;;;;;5012792;28;20235;-65
2021/01/10 00:39:26;;;;;;;13.90;7.40;;;-2.70;96.50;;;;;;5009845;28;20231;-65
2021/01/10 00:41:52;;;;;;;12.50;6.50;;;-2.70;96.60;;;;;;5010775;28;20627;-66
2021/01/10 00:44:17;;;;;;;12.90;6.87;;;-2.70;96.60;;;;;;5014373;28;20987;-65
2021/01/10 00:46:43;;;;;;;10.90;6.20;;;-2.70;96.70;;;;;;5011064;28;20764;-65
2021/01/10 00:49:09;;;;;;;21.07;7.10;;;-2.70;96.80;;;;;;5009234;28;20175;-64
2021/01/10 00:51:35;;;;;;;12.50;6.13;;;-2.70;96.50;;;;;;4996153;28;20165;-66
2021/01/10 00:54:00;;;;;;;11.87;6.20;;;-2.70;96.60;;;;;;4995878;28;20556;-65
2021/01/10 00:56:26;;;;;;;11.13;6.63;;;-2.70;96.70;;;;;;5000272;28;20186;-66
2021/01/10 00:58:52;;;;;;;11.03;6.03;;;-2.70;96.70;;;;;;5008946;28;20438;-65
2021/01/10 01:01:19;;;;;;;12.57;6.30;;;-2.60;96.80;;;;;;4996802;28;20584;-66
2021/01/10 01:03:48;;;;;;;8.50;5.77;;;-2.70;96.80;;;;;;5011258;28;21002;-65
2021/01/10 01:06:14;;;;;;;11.93;6.50;;;-2.60;96.60;;;;;;5008902;28;20449;-65
2021/01/10 01:08:42;;;;;;;11.37;6.93;;;-2.60;96.60;;;;;;5012630;28;20434;-65
2021/01/10 01:11:07;;;;;;;11.30;6.20;;;-2.60;96.60;;;;;;5014061;28;20216;-65
2021/01/10 01:13:33;;;;;;;11.37;7.17;;;-2.60;96.30;;;;;;5006028;28;20438;-66
2021/01/10 01:15:59;;;;;;;13.10;7.03;;;-2.60;96.10;;;;;;5003087;28;20189;-65
2021/01/10 01:18:25;;;;;;;13.40;6.30;;;-2.60;96.20;;;;;;5013860;28;20431;-65
2021/01/10 01:20:51;;;;;;;10.80;5.43;;;-2.60;96.20;;;;;;5013929;28;20445;-65
2021/01/10 01:23:17;;;;;;;13.97;6.50;;;-2.60;96.20;;;;;;5008975;28;20190;-65
2021/01/10 01:25:44;;;;;;;13.40;6.57;;;-2.60;96.30;;;;;;5014479;28;20432;-65
2021/01/10 01:28:12;;;;;;;11.90;6.63;;;-2.60;96.40;;;;;;5013312;28;20208;-65
2021/01/10 01:30:37;;;;;;;14.20;6.70;;;-2.60;96.40;;;;;;5009461;28;20457;-65
2021/01/10 01:33:06;;;;;;;14.00;6.67;;;-2.60;96.20;;;;;;5028187;28;20452;-66
2021/01/10 01:35:32;;;;;;;13.40;7.20;;;-2.60;96.10;;;;;;5011921;28;20203;-64
2021/01/10 01:37:58;;;;;;;13.00;7.00;;;-2.60;96.10;;;;;;5008398;28;20498;-65
2021/01/10 01:40:23;;;;;;;14.10;7.87;;;-2.60;96.20;;;;;;5009045;28;20268;-65
2021/01/10 01:42:49;;;;;;;16.87;8.27;;;-2.60;96.10;;;;;;5011857;28;20872;-66
2021/01/10 01:45:15;;;;;;;13.00;6.50;;;-2.50;96.00;;;;;;5012520;28;20196;-65
2021/01/10 01:47:41;;;;;;;13.57;7.40;;;-2.60;96.10;;;;;;5007540;28;20190;-65
2021/01/10 01:50:08;;;;;;;11.43;6.87;;;-2.60;96.20;;;;;;5007766;28;20711;-65
2021/01/10 01:52:34;;;;;;;16.27;7.10;;;-2.60;96.20;;;;;;5012638;28;20980;-65
2021/01/10 01:55:00;;;;;;;17.20;7.70;;;-2.70;96.30;;;;;;5011929;28;20435;-65
2021/01/10 01:57:29;;;;;;;18.53;8.70;;;-2.70;96.50;;;;;;5007405;28;20448;-66
2021/01/10 01:59:54;;;;;;;15.50;8.70;;;-2.70;96.70;;;;;;4994939;28;20855;-65
2021/01/10 02:02:20;;;;;;;17.97;8.43;;;-2.60;96.80;;;;;;5007408;28;20519;-65
2021/01/10 02:05:07;;;;;;;15.13;8.43;;;-2.60;96.80;;;;;;5007747;28;20175;-65
2021/01/10 02:07:51;;;;;;;16.07;8.40;;;-2.60;96.80;;;;;;4994523;28;20797;-65
2021/01/10 02:10:22;;;;;;;14.93;8.17;;;-2.60;96.70;;;;;;4996258;28;20443;-65
2021/01/10 02:12:51;;;;;;;17.50;8.57;;;-2.50;96.70;;;;;;5007841;28;20442;-65
2021/01/10 02:15:20;;;;;;;14.97;8.17;;;-2.50;96.60;;;;;;5007009;28;20429;-65
2021/01/10 02:17:49;;;;;;;17.03;8.70;;;-2.50;96.50;;;;;;5013235;28;20420;-65
2021/01/10 02:20:22;;;;;;;13.13;8.07;;;-2.50;96.50;;;;;;5015727;28;20463;-64
2021/01/10 02:23:14;;;;;;;14.40;7.60;;;-2.50;96.70;;;;;;4998989;28;20471;-65
2021/01/10 02:25:45;;;;;;;13.13;7.77;;;-2.50;96.50;;;;;;4991934;28;20417;-65
2021/01/10 02:28:14;;;;;;;13.90;7.90;;;-2.40;96.50;;;;;;5024522;28;20813;-65
2021/01/10 02:30:42;;;;;;;20.60;9.90;;;-2.50;96.30;;;;;;5011084;28;20450;-66
2021/01/10 02:33:41;;;;;;;16.50;9.10;;;-2.50;96.40;;;;;;5010316;28;20504;-66
2021/01/10 02:36:18;;;;;;;15.80;9.30;;;-2.50;96.40;;;;;;5004582;28;20447;-65
2021/01/10 02:38:52;;;;;;;17.10;8.67;;;-2.50;96.50;;;;;;5004652;28;20434;-65
2021/01/10 02:41:42;;;;;;;19.97;9.27;;;-2.50;96.50;;;;;;5001747;28;20458;-66
2021/01/10 02:44:23;;;;;;;14.50;8.33;;;-2.50;96.50;;;;;;5017235;28;20974;-66
2021/01/10 02:46:51;;;;;;;20.37;9.57;;;-2.50;96.60;;;;;;5017063;28;20501;-66
2021/01/10 02:49:18;;;;;;;18.83;9.57;;;-2.60;96.70;;;;;;5001408;28;20435;-65
2021/01/10 02:51:43;;;;;;;18.80;9.50;;;-2.60;96.90;;;;;;5011218;28;20417;-66
2021/01/10 02:54:14;;;;;;;15.40;8.70;;;-2.60;96.90;;;;;;5008579;28;20437;-65
2021/01/10 02:56:53;;;;;;;14.17;8.60;;;-2.60;97.00;;;;;;5006966;28;20191;-65
2021/01/10 02:59:24;;;;;;;16.67;8.90;;;-2.60;96.70;;;;;;5006830;28;20985;-65
2021/01/10 03:01:51;;;;;;;15.07;7.73;;;-2.60;96.60;;;;;;5012506;28;20455;-65
2021/01/10 03:04:17;;;;;;;14.13;8.33;;;-2.60;96.70;;;;;;5009865;28;20458;-65
2021/01/10 03:06:44;;;;;;;17.00;9.00;;;-2.60;96.70;;;;;;5016646;28;20435;-66
2021/01/10 03:09:12;;;;;;;12.90;7.53;;;-2.60;96.70;;;;;;5016318;28;20471;-64
2021/01/10 03:11:39;;;;;;;13.77;7.50;;;-2.60;96.50;;;;;;5016174;28;20432;-66
2021/01/10 03:14:05;;;;;;;13.10;6.50;;;-2.50;96.60;;;;;;5012252;28;20473;-65
2021/01/10 03:16:32;;;;;;;10.27;6.00;;;-2.50;96.20;;;;;;5015857;28;20441;-65
2021/01/10 03:18:57;;;;;;;12.80;6.37;;;-2.50;95.70;;;;;;5011951;28;20622;-65
2021/01/10 03:21:23;;;;;;;12.27;6.67;;;-2.60;95.50;;;;;;5015809;28;20487;-65
2021/01/10 03:23:49;;;;;;;16.60;7.20;;;-2.60;95.50;;;;;;4999760;28;20261;-65
2021/01/10 03:26:15;;;;;;;10.03;6.03;;;-2.60;95.60;;;;;;5001724;28;20265;-66
2021/01/10 03:28:40;;;;;;;8.90;5.90;;;-2.60;95.30;;;;;;5016101;28;20902;-64
2021/01/10 03:31:09;;;;;;;11.97;6.50;;;-2.60;95.30;;;;;;5012338;28;20754;-65
2021/01/10 03:33:34;;;;;;;12.77;6.93;;;-2.70;95.20;;;;;;5014584;28;20177;-65
2021/01/10 03:36:00;;;;;;;13.90;7.30;;;-2.70;95.40;;;;;;5012944;28;20444;-65
2021/01/10 03:38:26;;;;;;;14.00;7.00;;;-2.70;95.50;;;;;;5012895;28;20213;-64
2021/01/10 03:40:51;;;;;;;10.97;6.03;;;-2.70;95.70;;;;;;5001909;28;20311;-66
2021/01/10 03:43:17;;;;;;;12.67;6.63;;;-2.70;95.80;;;;;;5015660;28;20205;-66
2021/01/10 03:45:42;;;;;;;13.13;7.10;;;-2.70;95.90;;;;;;5014545;28;20249;-65
2021/01/10 03:48:10;;;;;;;15.93;7.40;;;-2.70;96.00;;;;;;4999328;28;20196;-65
2021/01/10 03:50:35;;;;;;;14.13;6.50;;;-2.70;96.00;;;;;;5007107;28;20217;-66
2021/01/10 03:53:01;;;;;;;13.83;7.00;;;-2.60;95.90;;;;;;5015052;28;20955;-66
2021/01/10 03:55:26;;;;;;;12.93;6.70;;;-2.60;95.90;;;;;;5011742;28;20200;-65
2021/01/10 03:57:52;;;;;;;14.83;7.40;;;-2.60;95.80;;;;;;5015182;28;20179;-65
2021/01/10 04:00:18;;;;;;;11.93;6.03;;;-2.60;95.80;;;;;;5012678;28;20220;-65
2021/01/10 04:02:44;;;;;;;15.00;7.47;;;-2.60;95.60;;;;;;5010714;28;20289;-65
2021/01/10 04:05:09;;;;;;;16.03;7.03;;;-2.60;95.60;;;;;;5011587;28;20950;-65
2021/01/10 04:07:35;;;;;;;13.70;7.30;;;-2.60;95.70;;;;;;5014673;28;20192;-65
2021/01/10 04:10:01;;;;;;;13.77;7.00;;;-2.60;95.80;;;;;;5012286;28;20253;-65
2021/01/10 04:12:27;;;;;;;12.70;6.63;;;-2.60;95.90;;;;;;5008818;28;20309;-65
2021/01/10 04:14:55;;;;;;;12.47;6.93;;;-2.60;95.60;;;;;;4994219;28;20418;-66
2021/01/10 04:17:25;;;;;;;12.67;6.43;;;-2.60;95.50;;;;;;5008898;28;20531;-65
2021/01/10 04:19:54;;;;;;;14.40;7.77;;;-2.70;95.50;;;;;;5012891;28;20444;-66
2021/01/10 04:22:20;;;;;;;14.67;7.37;;;-2.70;95.70;;;;;;5015579;28;20408;-66
2021/01/10 04:24:46;;;;;;;14.50;7.63;;;-2.70;95.70;;;;;;5028301;28;20439;-65
2021/01/10 04:27:12;;;;;;;15.07;7.10;;;-2.60;95.60;;;;;;5010974;28;20444;-66
2021/01/10 04:29:37;;;;;;;18.43;7.57;;;-2.60;95.70;;;;;;5003550;28;20228;-64
2021/01/10 04:32:04;;;;;;;9.50;6.53;;;-2.60;95.80;;;;;;5006150;28;20181;-66
2021/01/10 04:34:30;;;;;;;15.00;7.60;;;-2.60;95.70;;;;;;5011992;28;20559;-66
2021/01/10 04:36:55;;;;;;;17.67;7.90;;;-2.60;95.80;;;;;;5009265;28;21033;-65
2021/01/10 04:39:21;;;;;;;15.17;7.30;;;-2.60;95.90;;;;;;5008041;28;20328;-65
2021/01/10 04:41:48;;;;;;;14.13;7.50;;;-2.60;96.00;;;;;;5017773;28;20563;-65
2021/01/10 04:44:13;;;;;;;13.00;7.83;;;-2.50;96.10;;;;;;5013976;28;20952;-65
2021/01/10 04:46:41;;;;;;;14.40;7.10;;;-2.50;95.90;;;;;;5013572;28;20433;-65
2021/01/10 04:49:08;;;;;;;13.60;7.27;;;-2.50;95.60;;;;;;5012346;28;20484;-66
2021/01/10 04:51:36;;;;;;;15.40;7.63;;;-2.50;95.60;;;;;;5015170;28;20401;-66
2021/01/10 04:54:02;;;;;;;12.97;7.23;;;-2.50;95.50;;;;;;5012696;28;20431;-66
2021/01/10 04:56:29;;;;;;;15.87;7.83;;;-2.50;95.50;;;;;;5013198;28;20483;-66
2021/01/10 04:59:00;;;;;;;19.30;7.93;;;-2.50;95.50;;;;;;4998253;28;20574;-66
2021/01/10 05:01:50;;;;;;;21.90;8.33;;;-2.50;95.60;;;;;;5019976;28;20435;-66
2021/01/10 05:04:19;;;;;;;14.43;7.90;;;-2.50;95.60;;;;;;5006254;28;20459;-65
2021/01/10 05:06:45;;;;;;;19.47;8.40;;;-2.50;95.50;;;;;;5013589;28;20791;-66
2021/01/10 05:09:12;;;;;;;15.97;8.40;;;-2.50;95.60;;;;;;5009007;28;20874;-66
2021/01/10 05:11:38;;;;;;;12.67;7.43;;;-2.50;95.70;;;;;;4996168;28;20442;-65
2021/01/10 05:14:04;;;;;;;17.60;8.07;;;-2.50;95.80;;;;;;5012177;28;20937;-65
2021/01/10 05:16:32;;;;;;;19.20;8.53;;;-2.50;95.80;;;;;;5012717;28;20213;-66
2021/01/10 05:19:02;;;;;;;19.33;8.60;;;-2.60;95.80;;;;;;5005119;28;20433;-65
2021/01/10 05:21:29;;;;;;;14.90;7.77;;;-2.50;95.90;;;;;;5021926;28;20439;-66
2021/01/10 05:23:58;;;;;;;18.00;9.67;;;-2.50;95.80;;;;;;5014726;28;20467;-65
2021/01/10 05:26:36;;;;;;;17.00;8.63;;;-2.50;95.90;;;;;;5012144;28;20983;-66
2021/01/10 05:29:06;;;;;;;13.70;8.00;;;-2.50;95.90;;;;;;5002284;28;20509;-65
2021/01/10 05:31:41;;;;;;;19.57;9.33;;;-2.50;95.80;;;;;;4998825;28;20431;-66
2021/01/10 05:34:14;;;;;;;14.57;8.53;;;-2.50;95.70;;;;;;5024444;28;20448;-65
2021/01/10 05:36:40;;;;;;;16.80;8.23;;;-2.50;95.60;;;;;;5008843;28;20432;-66
2021/01/10 05:39:27;;;;;;;20.37;8.93;;;-2.50;95.60;;;;;;5008576;28;20430;-65
2021/01/10 05:41:59;;;;;;;16.13;8.73;;;-2.50;95.50;;;;;;5013343;28;20447;-65
2021/01/10 05:44:30;;;;;;;17.00;8.57;;;-2.60;95.50;;;;;;5013886;28;20483;-65
2021/01/10 05:47:07;;;;;;;15.83;7.60;;;-2.60;95.60;;;;;;5011333;28;20433;-66
2021/01/10 05:49:33;;;;;;;15.63;8.20;;;-2.60;95.60;;;;;;5012658;28;20487;-65
2021/01/10 05:52:09;;;;;;;17.77;7.90;;;-2.50;95.70;;;;;;5007899;28;20882;-64
2021/01/10 05:54:40;;;;;;;16.17;8.10;;;-2.60;95.70;;;;;;4999753;28;20424;-65
2021/01/10 05:57:07;;;;;;;14.97;7.07;;;-2.60;95.60;;;;;;5002242;28;20429;-66
2021/01/10 05:59:36;;;;;;;14.97;7.53;;;-2.70;95.70;;;;;;5003146;28;20439;-65
2021/01/10 06:02:03;;;;;;;14.10;7.80;;;-2.70;95.60;;;;;;5010285;28;20463;-66
2021/01/10 06:04:30;;;;;;;15.03;7.70;;;-2.70;95.60;;;;;;5010526;28;21216;-65
2021/01/10 06:06:57;;;;;;;12.57;7.40;;;-2.70;95.70;;;;;;5011126;28;20413;-65
2021/01/10 06:09:23;;;;;;;15.13;7.50;;;-2.70;95.70;;;;;;4985638;28;20458;-65
2021/01/10 06:11:48;;;;;;;17.57;8.10;;;-2.70;95.70;;;;;;4997009;28;20519;-65
2021/01/10 06:14:23;;;;;;;15.67;7.17;;;-2.80;95.70;;;;;;4994166;28;20465;-65
2021/01/10 06:16:58;;;;;;;10.47;6.43;;;-2.70;95.80;;;;;;5014140;28;20220;-66
2021/01/10 06:19:29;;;;;;;16.27;8.00;;;-2.80;95.60;;;;;;5011773;28;20820;-65
2021/01/10 06:21:56;;;;;;;16.80;7.90;;;-2.80;95.50;;;;;;5006070;28;20515;-66
2021/01/10 06:24:24;;;;;;;10.47;6.60;;;-2.80;95.60;;;;;;4991263;28;20461;-65
2021/01/10 06:27:05;;;;;;;12.50;6.73;;;-2.80;95.50;;;;;;5004169;28;20497;-58
2021/01/10 06:29:38;;;;;;;17.20;7.43;;;-2.80;95.80;;;;;;5002654;28;20547;-65
2021/01/10 06:32:10;;;;;;;12.23;6.10;;;-2.80;95.40;;;;;;5014273;28;20448;-64
2021/01/10 06:34:41;;;;;;;14.60;6.83;;;-2.80;95.30;;;;;;5000424;28;20983;-64
2021/01/10 06:37:08;;;;;;;14.40;7.10;;;-2.80;95.20;;;;;;5008640;28;20496;-66
2021/01/10 06:39:47;;;;;;;12.70;6.50;;;-2.70;95.20;;;;;;5003638;28;20437;-65
2021/01/10 06:42:15;;;;;;;10.60;6.27;;;-2.70;95.30;;;;;;5005449;28;20444;-64
2021/01/10 06:44:46;;;;;;;11.90;6.80;;;-2.70;95.10;;;;;;5009827;28;20440;-64
2021/01/10 06:47:17;;;;;;;12.30;6.33;;;-2.70;95.10;;;;;;5003065;28;20436;-64
2021/01/10 06:49:42;;;;;;;13.00;6.57;;;-2.70;95.00;;;;;;4998438;28;20464;-66
2021/01/10 06:52:10;;;;;;;11.27;6.90;;;-2.70;94.70;;;;;;5006105;28;20529;-66
2021/01/10 06:54:47;;;;;;;11.80;6.80;;;-2.70;94.90;;;;;;5001989;28;20444;-65
2021/01/10 06:57:13;;;;;;;12.43;5.80;;;-2.70;94.80;;;;;;5004660;28;20490;-64
2021/01/10 07:00:00;;;;;;;11.80;6.30;;;-2.70;94.70;;;;;;5005878;28;20465;-64
2021/01/10 07:02:27;;;;;;;10.53;6.20;;;-2.70;94.70;;;;;;5020601;28;20882;-63
2021/01/10 07:04:54;;;;;;;9.57;6.00;;;-2.80;94.90;;;;;;5006932;28;20432;-64
2021/01/10 07:07:39;;;;;;;10.13;6.20;;;-2.70;95.00;;;;;;5011939;28;20440;-65
2021/01/10 07:10:08;;;;;;;10.63;6.00;;;-2.70;94.90;;;;;;5013113;28;20471;-66
2021/01/10 07:12:33;;;;;;;10.57;5.70;;;-2.80;94.80;;;;;;5011466;28;20438;-65
2021/01/10 07:15:31;;;;;;;13.57;7.07;;;-2.80;94.70;;;;;;5010860;28;20447;-64
2021/01/10 07:18:04;;;;;;;10.93;5.63;;;-2.80;94.60;;;;;;4995001;28;20205;-65
2021/01/10 07:20:42;;;;;;;11.67;6.80;;;-2.80;94.70;;;;;;5009973;28;20453;-66
2021/01/10 07:23:28;;;;;;;8.70;5.83;;;-2.80;94.70;;;;;;5006914;28;20476;-66
2021/01/10 07:25:54;;;;;;;10.50;5.53;;;-2.80;94.60;;;;;;5003878;28;20448;-66
2021/01/10 07:28:33;;;;;;;9.40;5.67;;;-2.80;94.40;;;;;;5010356;28;20427;-65
2021/01/10 07:31:19;;;;;;;10.47;5.40;;;-2.90;94.40;;;;;;5004461;28;20452;-63
2021/01/10 07:33:45;;;;;;;10.83;7.30;;;-2.80;94.50;;;;;;5012784;28;20436;-66
2021/01/10 07:36:12;;;;;;;12.33;7.13;;;-2.80;94.50;;;;;;5021441;28;20442;-63
2021/01/10 07:38:40;;;;;;;8.13;5.20;;;-2.80;94.60;;;;;;5010543;28;20457;-64
2021/01/10 07:41:22;;;;;;;11.50;5.97;;;-2.80;94.60;;;;;;5007298;28;20473;-65
2021/01/10 07:43:49;;;;;;;12.50;7.00;;;-2.90;94.60;;;;;;5013036;28;20460;-65
2021/01/10 07:46:49;;;;;;;12.30;6.13;;;-2.90;94.50;;;;;;5008557;28;20421;-64
2021/01/10 07:49:20;;;;;;;14.03;6.77;;;-2.90;94.60;;;;;;5004240;28;20444;-63
2021/01/10 07:51:46;;;;;;;9.90;6.00;;;-2.90;94.70;;;;;;5005091;28;20494;-64
2021/01/10 07:54:12;;;;;;;11.93;6.30;;;-2.90;94.70;;;;;;5005670;28;20444;-65
2021/01/10 07:56:38;;;;;;;11.80;6.00;;;-2.80;94.80;;;;;;5007313;28;20449;-65
2021/01/10 07:59:17;;;;;;;10.37;6.07;;;-2.90;94.70;;;;;;5018284;28;20448;-63
2021/01/10 08:01:52;;;;;;;10.73;5.70;;;-2.80;94.70;;;;;;5001063;28;20464;-64
2021/01/10 08:04:33;;;;;;;14.23;6.67;;;-2.80;94.80;;;;;;5024335;28;20468;-65
2021/01/10 08:06:59;;;;;;;11.70;6.63;;;-2.80;94.60;;;;;;5004424;28;20428;-61
2021/01/10 08:09:33;;;;;;;10.73;6.00;;;-2.80;94.70;;;;;;5005330;28;20568;-65
2021/01/10 08:12:03;;;;;;;12.20;6.00;;;-2.80;94.70;;;;;;5007480;28;20484;-61
2021/01/10 08:14:28;;;;;;;11.47;5.57;;;-2.80;94.60;;;;;;5022464;28;20445;-61
2021/01/10 08:16:57;;;;;;;12.73;6.20;;;-2.70;94.70;;;;;;4999869;28;20481;-63
2021/01/10 08:19:23;;;;;;;8.70;5.83;;;-2.70;94.80;;;;;;5004863;28;20240;-63
2021/01/10 08:21:49;;;;;;;10.70;5.60;;;-2.70;94.80;;;;;;5000331;28;20436;-64
2021/01/10 08:24:15;;;;;;;11.27;6.10;;;-2.60;94.80;;;;;;5007372;28;20456;-61
2021/01/10 08:26:42;;;;;;;11.83;5.80;;;-2.60;94.80;;;;;;5007886;28;20200;-62
2021/01/10 08:29:08;;;;;;;13.57;7.13;;;-2.50;94.80;;;;;;4998517;28;20425;-61
2021/01/10 08:31:35;;;;;;;9.27;5.33;;;-2.50;94.90;;;;;;4997576;28;20962;-64
2021/01/10 08:34:09;;;;;;;10.60;5.73;;;-2.50;94.80;;;;;;4997246;28;20437;-64
2021/01/10 08:36:36;;;;;;;9.90;5.83;;;-2.40;94.90;;;;;;5002124;28;20507;-66
2021/01/10 08:39:04;;;;;;;12.87;5.50;;;-2.40;94.80;;;;;;4999999;28;20442;-63
2021/01/10 08:41:42;;;;;;;9.73;5.57;;;-2.40;94.90;;;;;;5004983;28;20503;-65
2021/01/10 08:44:15;;;;;;;8.73;5.40;;;-2.40;94.90;;;;;;5008004;28;20457;-63
2021/01/10 08:46:43;;;;;;;10.13;5.80;;;-2.30;95.00;;;;;;5006540;28;20954;-62
2021/01/10 08:49:09;;;;;;;12.50;5.70;;;-2.20;94.90;;;;;;5002532;28;20429;-61
2021/01/10 08:51:37;;;;;;;8.53;5.47;;;-2.20;94.80;;;;;;5007549;28;20436;-62
2021/01/10 08:54:08;;;;;;;7.80;5.03;;;-2.20;94.60;;;;;;5005689;28;20178;-63
2021/01/10 08:56:34;;;;;;;6.13;4.60;;;-2.20;94.60;;;;;;5007282;28;20450;-61
2021/01/10 08:59:00;;;;;;;11.17;5.53;;;-2.20;94.50;;;;;;5002759;28;20441;-60
2021/01/10 09:01:27;;;;;;;8.80;5.83;;;-2.20;94.50;;;;;;5004917;28;20518;-60
2021/01/10 09:04:00;;;;;;;10.40;5.37;;;-2.20;94.60;;;;;;5004709;28;21028;-63
2021/01/10 09:06:52;;;;;;;9.43;5.77;;;-2.10;94.50;;;;;;5005379;28;20450;-62
2021/01/10 09:09:36;;;;;;;8.70;5.30;;;-2.10;94.30;;;;;;4996483;28;20994;-62
2021/01/10 09:12:12;;;;;;;11.17;5.10;;;-2.00;94.20;;;;;;5002667;28;20449;-62
2021/01/10 09:14:40;;;;;;;9.77;5.90;;;-1.90;94.00;;;;;;5010734;28;20863;-65
2021/01/10 09:17:07;;;;;;;8.07;4.90;;;-1.80;93.80;;;;;;5006419;28;20435;-67
2021/01/10 09:19:35;;;;;;;10.27;4.87;;;-1.70;93.50;;;;;;5014489;28;20461;-64
2021/01/10 09:22:02;;;;;;;8.10;5.23;;;-1.70;93.30;;;;;;5000285;28;20471;-64
2021/01/10 09:24:39;;;;;;;10.23;5.40;;;-1.60;93.20;;;;;;5001706;28;20457;-64
2021/01/10 09:27:15;;;;;;;8.20;4.60;;;-1.50;93.00;;;;;;5003710;28;20440;-64
2021/01/10 09:29:41;;;;;;;9.90;5.60;;;-1.50;92.80;;;;;;5004281;28;20459;-64
2021/01/10 09:32:19;;;;;;;6.40;4.37;;;-1.40;92.50;;;;;;5004257;28;20425;-63
2021/01/10 09:34:54;;;;;;;8.90;4.73;;;-1.40;92.10;;;;;;5008898;28;20497;-65
2021/01/10 09:37:25;;;;;;;7.27;3.83;;;-1.30;91.50;;;;;;5022981;28;20433;-67
2021/01/10 09:39:50;;;;;;;8.10;4.70;;;-1.30;91.70;;;;;;5007486;28;20957;-64
2021/01/10 09:42:19;;;;;;;11.97;5.30;;;-1.30;91.70;;;;;;5011817;28;20424;-63
2021/01/10 09:44:55;;;;;;;8.17;4.57;;;-1.30;91.50;;;;;;5012780;28;20201;-63
2021/01/10 09:47:35;;;;;;;9.33;4.90;;;-1.30;91.70;;;;;;5008406;28;20527;-64
2021/01/10 09:50:07;;;;;;;7.90;5.20;;;-1.20;91.60;;;;;;5015802;28;20835;-65
2021/01/10 09:52:54;;;;;;;7.70;4.60;;;-1.20;91.30;;;;;;5008595;28;20440;-64
2021/01/10 09:55:24;;;;;;;8.00;4.80;;;-1.20;91.00;;;;;;5007292;28;20432;-64
2021/01/10 09:57:51;;;;;;;6.73;4.50;;;-1.20;91.00;;;;;;5008742;28;20793;-65
2021/01/10 10:00:17;;;;;;;9.17;5.13;;;-1.20;91.20;;;;;;5005464;28;20471;-65
2021/01/10 10:02:44;;;;;;;7.27;5.30;;;-1.10;91.50;;;;;;5001985;28;20497;-65
2021/01/10 10:05:25;;;;;;;7.93;5.33;;;-1.00;91.40;;;;;;4995424;28;20440;-65
2021/01/10 10:07:59;;;;;;;9.17;5.00;;;-0.90;90.80;;;;;;5003042;28;20428;-66
2021/01/10 10:10:27;;;;;;;6.90;5.00;;;-0.80;91.30;;;;;;5000106;28;20453;-65
2021/01/10 10:13:01;;;;;;;10.83;5.50;;;-0.70;91.00;;;;;;4998195;28;20561;-63
2021/01/10 10:15:49;;;;;;;7.80;5.33;;;-0.60;90.70;;;;;;4996020;28;22912;-64
2021/01/10 10:18:21;;;;;;;10.40;5.60;;;-0.60;90.30;;;;;;4997825;28;20844;-66
2021/01/10 10:20:48;;;;;;;7.83;5.00;;;-0.50;90.10;;;;;;4999254;28;20440;-65
2021/01/10 10:23:15;;;;;;;7.23;5.20;;;-0.40;89.70;;;;;;5002624;28;20527;-66
2021/01/10 10:25:48;;;;;;;8.70;5.77;;;-0.40;89.20;;;;;;4990730;28;20520;-66
2021/01/10 10:28:15;;;;;;;9.67;6.17;;;-0.50;89.60;;;;;;4997317;28;20522;-67
2021/01/10 10:30:46;;;;;;;9.97;6.00;;;-0.40;89.60;;;;;;4992977;28;20457;-66
2021/01/10 10:33:12;;;;;;;8.90;4.83;;;-0.40;88.70;;;;;;4995996;28;20449;-65
2021/01/10 10:35:38;;;;;;;9.53;5.70;;;-0.30;87.00;;;;;;4992160;28;20419;-66
2021/01/10 10:38:05;;;;;;;10.00;6.30;;;-0.40;87.50;;;;;;4999734;28;20464;-64
2021/01/10 10:40:31;;;;;;;11.70;6.87;;;-0.40;87.20;;;;;;4996466;28;20469;-63
2021/01/10 10:42:59;;;;;;;8.37;6.20;;;-0.30;88.20;;;;;;5004147;28;20455;-65
2021/01/10 10:45:25;;;;;;;9.03;5.47;;;-0.30;86.60;;;;;;5006125;28;20435;-65
2021/01/10 10:47:51;;;;;;;10.00;6.37;;;-0.30;87.10;;;;;;5004964;28;20487;-65
2021/01/10 10:50:17;;;;;;;9.07;5.50;;;-0.20;87.60;;;;;;5000302;28;20219;-64
2021/01/10 10:52:43;;;;;;;11.07;6.23;;;-0.20;86.10;;;;;;5004986;28;20439;-65
2021/01/10 10:55:12;;;;;;;9.10;6.00;;;-0.10;86.20;;;;;;5002031;28;20459;-64
2021/01/10 10:57:40;;;;;;;10.63;5.50;;;0.00;84.80;;;;;;5003067;28;20866;-65
2021/01/10 11:00:07;;;;;;;9.53;6.03;;;0.20;82.70;;;;;;5003532;28;20470;-63
2021/01/10 11:02:33;;;;;;;9.27;5.50;;;0.20;79.30;;;;;;5002189;28;20439;-63
2021/01/10 11:04:58;;;;;;;10.43;6.13;;;0.30;79.60;;;;;;5000115;28;20447;-65
2021/01/10 11:07:24;;;;;;;9.50;6.23;;;0.30;77.40;;;;;;5000504;28;20191;-66
2021/01/10 11:09:50;;;;;;;8.30;5.30;;;0.30;78.20;;;;;;5006826;28;20207;-65
2021/01/10 11:12:16;;;;;;;11.70;6.90;;;0.40;76.00;;;;;;5000158;28;20469;-66
2021/01/10 11:14:42;;;;;;;10.10;5.80;;;0.30;75.70;;;;;;5007189;28;20719;-66
2021/01/10 11:17:08;;;;;;;16.20;7.10;;;0.40;75.80;;;;;;5007221;28;20187;-65
2021/01/10 11:19:35;;;;;;;12.40;6.00;;;0.40;76.60;;;;;;5004345;28;20481;-66
2021/01/10 11:22:04;;;;;;;12.03;6.40;;;0.40;74.60;;;;;;5007403;28;20516;-66
2021/01/10 11:24:31;;;;;;;10.73;5.77;;;0.50;74.00;;;;;;5004716;28;20495;-66
2021/01/10 11:26:58;;;;;;;6.50;5.30;;;0.50;74.20;;;;;;5007853;28;20524;-65
2021/01/10 11:29:24;;;;;;;8.60;5.67;;;0.60;75.10;;;;;;4999597;28;20464;-66
2021/01/10 11:31:50;;;;;;;11.70;6.33;;;0.70;72.50;;;;;;5000634;28;20644;-62
2021/01/10 11:34:16;;;;;;;8.50;5.73;;;0.80;78.50;;;;;;5004070;28;21024;-66
2021/01/10 11:36:47;;;;;;;7.87;5.17;;;1.00;74.60;;;;;;4997827;28;20917;-63
2021/01/10 11:39:14;;;;;;;8.03;5.10;;;1.10;71.40;;;;;;5008868;28;20445;-67
2021/01/10 11:41:55;;;;;;;8.13;5.33;;;1.20;67.80;;;;;;4988290;28;20462;-64
2021/01/10 11:44:23;;;;;;;9.50;5.77;;;1.30;64.80;;;;;;4998734;28;20556;-64
2021/01/10 11:46:50;;;;;;;7.47;5.40;;;1.30;65.20;;;;;;4997021;28;20445;-63
2021/01/10 11:49:17;;;;;;;11.20;5.83;;;1.30;64.00;;;;;;4993498;28;20433;-62
2021/01/10 11:51:43;;;;;;;8.43;5.07;;;1.40;62.70;;;;;;4993216;28;20795;-64
2021/01/10 11:54:15;;;;;;;8.30;5.53;;;1.40;62.80;;;;;;5000087;28;21169;-62
2021/01/10 11:56:42;;;;;;;7.70;5.07;;;1.40;61.70;;;;;;4998230;28;20445;-63
2021/01/10 11:59:08;;;;;;;10.57;5.97;;;1.40;60.90;;;;;;4998335;28;20441;-62
2021/01/10 12:01:35;;;;;;;7.30;5.40;;;1.40;61.60;;;;;;4994692;28;20440;-63
2021/01/10 12:04:03;;;;;;;12.03;6.30;;;1.60;61.20;;;;;;4995776;28;20470;-62
2021/01/10 12:06:29;;;;;;;6.80;4.90;;;1.70;60.50;;;;;;4999550;28;20442;-65
2021/01/10 12:08:55;;;;;;;9.73;5.90;;;1.70;58.70;;;;;;4997362;28;20451;-64
2021/01/10 12:11:21;;;;;;;8.33;5.33;;;1.40;59.10;;;;;;4998977;28;20555;-64
2021/01/10 12:13:47;;;;;;;11.40;6.07;;;1.10;60.50;;;;;;4994292;28;20197;-65
2021/01/10 12:16:14;;;;;;;8.77;5.70;;;0.80;61.90;;;;;;4995053;28;20469;-65
2021/01/10 12:18:40;;;;;;;14.03;5.93;;;0.50;63.70;;;;;;4998964;28;20444;-65
2021/01/10 12:21:07;;;;;;;9.20;5.50;;;0.20;66.30;;;;;;5012826;28;20471;-62
2021/01/10 12:23:34;;;;;;;9.83;6.50;;;0.10;68.10;;;;;;4999790;28;20461;-62
2021/01/10 12:26:00;;;;;;;9.97;6.23;;;-0.10;69.50;;;;;;4998297;28;21010;-65
2021/01/10 12:28:26;;;;;;;11.03;5.80;;;-0.10;71.00;;;;;;4993741;28;20438;-64
2021/01/10 12:30:52;;;;;;;9.80;6.20;;;-0.20;71.40;;;;;;4998551;28;20248;-64
2021/01/10 12:33:17;;;;;;;10.33;5.80;;;-0.30;72.10;;;;;;4997674;28;20914;-64
2021/01/10 12:35:43;;;;;;;9.97;6.23;;;-0.30;73.10;;;;;;4994440;28;20212;-63
2021/01/10 12:38:09;;;;;;;8.23;5.20;;;-0.40;73.20;;;;;;5000323;28;20215;-65
2021/01/10 12:40:34;;;;;;;8.60;5.47;;;-0.40;73.60;;;;;;4998464;28;20291;-63
2021/01/10 12:43:00;;;;;;;10.03;6.13;;;-0.40;74.90;;;;;;5001660;28;20194;-64
2021/01/10 12:45:26;;;;;;;9.50;6.17;;;-0.40;75.20;;;;;;5000562;28;20213;-63
2021/01/10 12:47:51;;;;;;;11.27;6.03;;;-0.40;76.50;;;;;;5000534;28;21169;-62
2021/01/10 12:50:17;;;;;;;9.83;5.33;;;-0.40;75.50;;;;;;4997258;28;20209;-63